createdAt,value
2019-04-29T00:02:25.718Z,4.39
2019-04-29T00:04:54.463Z,4.38
2019-04-29T00:07:23.232Z,4.31
2019-04-29T00:09:51.977Z,4.35
2019-04-29T00:12:20.880Z,4.44
2019-04-29T00:15:05.065Z,4.40
2019-04-29T00:17:51.991Z,4.42
2019-04-29T00:20:36.540Z,4.30
2019-04-29T00:23:05.358Z,4.42
2019-04-29T00:25:34.322Z,4.39
2019-04-29T00:28:03.422Z,4.14
2019-04-29T00:30:32.303Z,4.05
2019-04-29T00:33:01.124Z,4.05
2019-04-29T00:35:29.943Z,4.32
2019-04-29T00:38:15.785Z,4.22
2019-04-29T00:41:09.425Z,4.20
2019-04-29T00:43:55.838Z,4.14
2019-04-29T00:46:24.568Z,4.24
2019-04-29T00:48:53.646Z,4.20
2019-04-29T00:51:22.441Z,4.24
2019-04-29T00:53:52.827Z,4.31
2019-04-29T00:56:21.624Z,4.16
2019-04-29T00:58:50.424Z,4.28
2019-04-29T01:01:23.550Z,4.28
2019-04-29T01:03:52.653Z,4.18
2019-04-29T01:06:21.468Z,4.16
2019-04-29T01:08:50.460Z,4.14
2019-04-29T01:11:19.449Z,4.11
2019-04-29T01:13:48.274Z,4.10
2019-04-29T01:16:16.998Z,4.19
2019-04-29T01:18:45.751Z,4.18
2019-04-29T01:21:14.676Z,4.18
2019-04-29T01:23:43.752Z,4.20
2019-04-29T01:26:27.573Z,4.08
2019-04-29T01:28:56.607Z,3.96
2019-04-29T01:31:29.481Z,4.02
2019-04-29T01:34:03.693Z,4.10
2019-04-29T01:36:36.994Z,4.12
2019-04-29T01:39:08.593Z,3.89
2019-04-29T01:42:02.580Z,3.85
2019-04-29T01:44:33.358Z,3.85
2019-04-29T01:47:02.074Z,4.24
2019-04-29T01:49:30.823Z,4.01
2019-04-29T01:51:59.644Z,3.89
2019-04-29T01:54:28.492Z,3.96
2019-04-29T01:56:57.282Z,3.94
2019-04-29T01:59:26.113Z,4.00
2019-04-29T02:01:54.915Z,3.91
2019-04-29T02:04:23.800Z,4.05
2019-04-29T02:06:52.691Z,4.04
2019-04-29T02:09:49.767Z,3.95
2019-04-29T02:12:18.506Z,4.07
2019-04-29T02:14:47.273Z,3.96
2019-04-29T02:17:16.105Z,4.02
2019-04-29T02:19:44.917Z,4.08
2019-04-29T02:22:27.122Z,4.03
2019-04-29T02:24:59.803Z,3.96
2019-04-29T02:27:28.533Z,3.98
2019-04-29T02:29:57.275Z,4.11
2019-04-29T02:32:25.998Z,4.05
2019-04-29T02:34:54.741Z,4.22
2019-04-29T02:37:29.430Z,4.01
2019-04-29T02:40:07.346Z,4.15
2019-04-29T02:42:51.672Z,4.16
2019-04-29T02:45:27.709Z,4.17
2019-04-29T02:47:56.426Z,4.11
2019-04-29T02:50:25.173Z,4.10
2019-04-29T02:52:53.977Z,4.14
2019-04-29T02:55:42.133Z,4.07
2019-04-29T02:58:30.020Z,4.13
2019-04-29T03:01:17.914Z,4.15
2019-04-29T03:04:21.470Z,4.16
2019-04-29T03:06:50.550Z,4.04
2019-04-29T03:09:19.507Z,4.07
2019-04-29T03:11:48.296Z,4.25
2019-04-29T03:14:17.148Z,4.70
2019-04-29T03:16:46.126Z,5.00
2019-04-29T03:19:20.492Z,5.21
2019-04-29T03:21:55.154Z,5.36
2019-04-29T03:24:23.922Z,5.38
2019-04-29T03:26:52.781Z,5.41
2019-04-29T03:29:24.588Z,5.46
2019-04-29T03:31:54.912Z,5.47
2019-04-29T03:34:23.661Z,5.41
2019-04-29T03:36:52.726Z,5.43
2019-04-29T03:39:21.614Z,5.37
2019-04-29T03:41:50.432Z,5.34
2019-04-29T03:44:19.192Z,5.38
2019-04-29T03:46:47.963Z,5.51
2019-04-29T03:49:16.723Z,5.48
2019-04-29T03:51:45.481Z,5.40
2019-04-29T03:54:14.212Z,5.42
2019-04-29T03:56:44.326Z,5.32
2019-04-29T03:59:13.059Z,5.25
2019-04-29T04:01:49.448Z,5.28
2019-04-29T04:04:40.412Z,5.24
2019-04-29T04:07:43.649Z,5.16
2019-04-29T04:10:12.963Z,5.17
2019-04-29T04:12:41.716Z,5.22
2019-04-29T04:15:10.743Z,5.21
2019-04-29T04:18:04.832Z,5.11
2019-04-29T04:20:33.586Z,5.10
2019-04-29T04:23:02.629Z,5.23
2019-04-29T04:25:31.414Z,5.07
2019-04-29T04:28:00.347Z,5.09
2019-04-29T04:30:29.239Z,5.08
2019-04-29T04:32:58.012Z,5.10
2019-04-29T04:35:26.778Z,5.16
2019-04-29T04:37:55.587Z,5.14
2019-04-29T04:40:33.076Z,5.13
2019-04-29T04:43:02.061Z,5.34
2019-04-29T04:45:30.821Z,5.29
2019-04-29T04:47:59.567Z,5.41
2019-04-29T04:50:28.382Z,5.47
2019-04-29T04:52:57.125Z,5.59
2019-04-29T04:55:28.658Z,5.56
2019-04-29T04:57:57.408Z,5.59
2019-04-29T05:00:27.738Z,5.59
2019-04-29T05:02:56.476Z,5.75
2019-04-29T05:05:25.223Z,5.72
2019-04-29T05:07:54.204Z,5.90
2019-04-29T05:10:23.016Z,5.83
2019-04-29T05:12:52.545Z,5.93
2019-04-29T05:15:21.344Z,5.96
2019-04-29T05:17:53.155Z,5.97
2019-04-29T05:20:21.111Z,5.99
2019-04-29T05:23:08.379Z,5.95
2019-04-29T05:25:37.114Z,5.91
2019-04-29T05:28:06.217Z,5.90
2019-04-29T05:30:34.987Z,5.91
2019-04-29T05:33:03.803Z,5.87
2019-04-29T05:35:40.430Z,5.97
2019-04-29T05:38:28.201Z,5.99
2019-04-29T05:40:57.288Z,6.03
2019-04-29T05:43:57.400Z,6.16
2019-04-29T05:46:42.471Z,6.28
2019-04-29T05:49:13.309Z,6.19
2019-04-29T05:51:48.481Z,6.29
2019-04-29T05:54:17.947Z,6.38
2019-04-29T05:56:46.829Z,6.52
2019-04-29T05:59:15.615Z,6.44
2019-04-29T06:01:47.352Z,6.35
2019-04-29T06:04:16.245Z,6.47
2019-04-29T06:06:45.550Z,6.55
2019-04-29T06:09:16.886Z,6.60
2019-04-29T06:11:45.178Z,6.69
2019-04-29T06:14:14.001Z,6.71
2019-04-29T06:16:42.688Z,6.86
2019-04-29T06:19:11.550Z,7.08
2019-04-29T06:21:40.282Z,7.09
2019-04-29T06:24:09.071Z,7.14
2019-04-29T06:26:38.079Z,7.12
2019-04-29T06:29:06.921Z,7.29
2019-04-29T06:31:35.955Z,7.41
2019-04-29T06:34:06.408Z,7.48
2019-04-29T06:36:35.507Z,7.70
2019-04-29T06:39:07.734Z,7.64
2019-04-29T06:41:36.622Z,7.96
2019-04-29T06:44:10.186Z,7.83
2019-04-29T06:46:36.264Z,8.00
2019-04-29T06:49:10.554Z,7.97
2019-04-29T06:51:35.731Z,8.14
2019-04-29T06:54:04.850Z,8.12
2019-04-29T06:56:33.767Z,8.37
2019-04-29T06:59:02.596Z,8.39
2019-04-29T07:01:33.091Z,8.35
2019-04-29T07:04:02.030Z,8.56
2019-04-29T07:06:30.931Z,8.48
2019-04-29T07:08:59.902Z,8.48
2019-04-29T07:11:31.773Z,8.60
2019-04-29T07:13:59.397Z,8.65
2019-04-29T07:16:31.937Z,8.65
2019-04-29T07:18:58.684Z,8.65
2019-04-29T07:21:27.486Z,8.77
2019-04-29T07:23:56.275Z,8.85
2019-04-29T07:26:25.130Z,9.01
2019-04-29T07:28:55.427Z,9.11
2019-04-29T07:31:28.380Z,9.11
2019-04-29T07:33:57.920Z,9.32
2019-04-29T07:36:25.894Z,9.45
2019-04-29T07:38:56.614Z,9.69
2019-04-29T07:41:25.345Z,9.66
2019-04-29T07:43:54.176Z,9.57
2019-04-29T07:46:36.366Z,9.43
2019-04-29T07:49:02.180Z,9.61
2019-04-29T07:51:34.721Z,9.85
2019-04-29T07:54:03.372Z,9.74
2019-04-29T07:56:32.179Z,9.98
2019-04-29T07:59:02.966Z,9.90
2019-04-29T08:01:31.643Z,9.68
2019-04-29T08:04:00.532Z,9.56
2019-04-29T08:06:29.792Z,9.58
2019-04-29T08:09:07.388Z,9.47
2019-04-29T08:11:31.788Z,9.48
2019-04-29T08:14:01.756Z,9.47
2019-04-29T08:16:30.666Z,9.44
2019-04-29T08:18:59.443Z,9.61
2019-04-29T08:21:28.246Z,9.49
2019-04-29T08:23:57.138Z,9.50
2019-04-29T08:26:26.093Z,9.52
2019-04-29T08:29:00.407Z,9.63
2019-04-29T08:31:25.416Z,9.50
2019-04-29T08:33:54.297Z,9.52
2019-04-29T08:36:23.133Z,9.64
2019-04-29T08:38:52.088Z,9.57
2019-04-29T08:41:28.604Z,9.75
2019-04-29T08:44:16.895Z,9.85
2019-04-29T08:46:52.001Z,10.00
2019-04-29T08:49:21.656Z,10.16
2019-04-29T08:51:50.534Z,10.20
2019-04-29T08:54:20.034Z,10.31
2019-04-29T08:57:02.430Z,10.32
2019-04-29T08:59:20.743Z,10.38
2019-04-29T09:01:50.052Z,10.17
2019-04-29T09:04:18.926Z,10.18
2019-04-29T09:06:47.735Z,10.28
2019-04-29T09:09:28.437Z,10.18
2019-04-29T09:11:48.030Z,10.35
2019-04-29T09:14:17.743Z,10.34
2019-04-29T09:16:46.581Z,10.21
2019-04-29T09:19:15.359Z,10.12
2019-04-29T09:21:45.880Z,10.05
2019-04-29T09:24:14.658Z,10.20
2019-04-29T09:26:48.378Z,10.61
2019-04-29T09:29:36.937Z,10.50
2019-04-29T09:32:07.116Z,10.65
2019-04-29T09:34:36.082Z,10.87
2019-04-29T09:37:05.401Z,10.26
2019-04-29T09:39:43.553Z,10.48
2019-04-29T09:42:26.211Z,10.52
2019-04-29T09:45:24.395Z,10.57
2019-04-29T09:47:51.650Z,10.72
2019-04-29T09:50:20.766Z,10.38
2019-04-29T09:52:49.589Z,10.59
2019-04-29T09:55:19.756Z,10.44
2019-04-29T09:57:48.731Z,10.30
2019-04-29T10:00:28.279Z,10.04
2019-04-29T10:03:16.191Z,10.07
2019-04-29T10:05:59.767Z,9.75
2019-04-29T10:08:28.597Z,9.55
2019-04-29T10:10:57.693Z,9.49
2019-04-29T10:13:26.672Z,9.43
2019-04-29T10:16:03.396Z,9.50
2019-04-29T10:18:39.821Z,9.53
2019-04-29T10:21:10.984Z,9.34
2019-04-29T10:23:40.253Z,9.34
2019-04-29T10:26:09.316Z,9.46
2019-04-29T10:28:45.055Z,9.62
2019-04-29T10:31:13.838Z,9.82
2019-04-29T10:33:42.702Z,9.78
2019-04-29T10:36:11.586Z,9.79
2019-04-29T10:38:44.854Z,9.92
2019-04-29T10:41:20.055Z,9.54
2019-04-29T10:44:25.785Z,9.31
2019-04-29T10:47:12.519Z,9.46
2019-04-29T10:49:45.593Z,9.46
2019-04-29T10:52:14.611Z,9.07
2019-04-29T10:54:43.599Z,9.18
2019-04-29T10:57:14.659Z,9.06
2019-04-29T10:59:46.339Z,8.96
2019-04-29T11:02:35.068Z,8.88
2019-04-29T11:05:17.670Z,8.72
2019-04-29T11:07:46.613Z,8.63
2019-04-29T11:10:25.498Z,8.63
2019-04-29T11:12:54.609Z,8.76
2019-04-29T11:15:30.577Z,8.59
2019-04-29T11:17:59.850Z,8.61
2019-04-29T11:20:28.363Z,8.55
2019-04-29T11:23:17.521Z,8.60
2019-04-29T11:26:11.345Z,8.60
2019-04-29T11:28:41.787Z,8.69
2019-04-29T11:31:14.335Z,8.60
2019-04-29T11:33:50.907Z,8.69
2019-04-29T11:36:22.157Z,8.50
2019-04-29T11:38:51.045Z,8.60
2019-04-29T11:41:20.904Z,8.78
2019-04-29T11:43:51.146Z,8.87
2019-04-29T11:46:21.358Z,8.78
2019-04-29T11:48:51.977Z,8.70
2019-04-29T11:51:49.328Z,8.54
2019-04-29T11:54:08.325Z,8.78
2019-04-29T11:56:39.405Z,8.53
2019-04-29T11:59:32.140Z,8.48
2019-04-29T12:02:17.629Z,8.48
2019-04-29T12:04:53.371Z,8.42
2019-04-29T12:07:22.553Z,8.57
2019-04-29T12:09:51.519Z,8.49
2019-04-29T12:12:21.841Z,8.54
2019-04-29T12:14:56.548Z,8.66
2019-04-29T12:17:29.872Z,8.61
2019-04-29T12:20:01.901Z,8.46
2019-04-29T12:22:31.107Z,8.46
2019-04-29T12:25:00.030Z,8.46
2019-04-29T12:27:29.315Z,8.43
2019-04-29T12:29:59.591Z,8.31
2019-04-29T12:32:36.176Z,8.40
2019-04-29T12:35:26.375Z,8.52
2019-04-29T12:38:17.047Z,8.37
2019-04-29T12:41:01.719Z,8.37
2019-04-29T12:43:48.680Z,8.37
2019-04-29T12:46:39.728Z,8.49
2019-04-29T12:49:13.480Z,8.36
2019-04-29T12:51:39.105Z,8.39
2019-04-29T12:54:08.073Z,8.44
2019-04-29T12:56:38.299Z,8.35
2019-04-29T12:59:07.401Z,8.50
2019-04-29T13:01:57.740Z,8.40
2019-04-29T13:04:40.840Z,8.33
2019-04-29T13:07:30.354Z,8.51
2019-04-29T13:10:06.848Z,8.35
2019-04-29T13:12:32.894Z,8.35
2019-04-29T13:15:14.093Z,8.54
2019-04-29T13:18:03.122Z,8.54
2019-04-29T13:20:24.243Z,8.55
2019-04-29T13:22:53.088Z,8.66
2019-04-29T13:25:21.853Z,8.76
2019-04-29T13:27:50.749Z,8.74
2019-04-29T13:30:19.752Z,8.62
2019-04-29T13:32:48.611Z,8.67
2019-04-29T13:35:17.555Z,8.72
2019-04-29T13:37:46.393Z,8.69
2019-04-29T13:40:15.928Z,8.75
2019-04-29T13:42:49.153Z,8.74
2019-04-29T13:45:20.119Z,8.73
2019-04-29T13:48:10.953Z,8.68
2019-04-29T13:50:56.407Z,8.64
2019-04-29T13:53:25.348Z,8.69
2019-04-29T13:56:10.504Z,8.68
2019-04-29T13:58:27.040Z,8.76
2019-04-29T14:01:33.481Z,8.76
2019-04-29T14:04:13.792Z,8.79
2019-04-29T14:06:56.232Z,8.77
2019-04-29T14:09:15.566Z,8.77
2019-04-29T14:11:44.421Z,8.79
2019-04-29T14:14:13.286Z,8.79
2019-04-29T14:16:43.115Z,8.90
2019-04-29T14:19:12.612Z,8.81
2019-04-29T14:21:43.551Z,8.82
2019-04-29T14:24:11.947Z,8.78
2019-04-29T14:26:41.857Z,8.78
2019-04-29T14:29:11.302Z,8.94
2019-04-29T14:31:40.080Z,8.89
2019-04-29T14:34:19.919Z,8.83
2019-04-29T14:36:46.175Z,8.82
2019-04-29T14:39:18.943Z,8.91
2019-04-29T14:41:50.936Z,8.88
2019-04-29T14:44:40.373Z,8.82
2019-04-29T14:47:34.994Z,8.82
2019-04-29T14:50:05.321Z,8.90
2019-04-29T14:52:34.205Z,8.84
2019-04-29T14:55:03.084Z,8.84
2019-04-29T14:57:32.136Z,8.91
2019-04-29T15:00:01.145Z,8.90
2019-04-29T15:02:30.120Z,8.90
2019-04-29T15:04:58.936Z,8.93
2019-04-29T15:07:30.051Z,8.93
2019-04-29T15:09:59.312Z,8.92
2019-04-29T15:12:52.109Z,8.97
2019-04-29T15:15:29.776Z,8.85
2019-04-29T15:18:16.514Z,8.87
2019-04-29T15:20:47.640Z,8.73
2019-04-29T15:23:27.948Z,8.73
2019-04-29T15:25:50.436Z,8.78
2019-04-29T15:28:19.315Z,8.73
2019-04-29T15:30:48.177Z,8.80
2019-04-29T15:33:17.075Z,8.91
2019-04-29T15:35:45.877Z,8.91
2019-04-29T15:38:23.950Z,8.83
2019-04-29T15:40:52.726Z,8.84
2019-04-29T15:43:24.537Z,8.80
2019-04-29T15:45:52.393Z,8.73
2019-04-29T15:48:21.219Z,8.73
2019-04-29T15:50:50.066Z,8.69
2019-04-29T15:53:21.176Z,8.69
2019-04-29T15:56:06.575Z,8.74
2019-04-29T15:58:27.499Z,8.68
2019-04-29T16:01:11.744Z,8.61
2019-04-29T16:03:27.467Z,8.65
2019-04-29T16:06:21.185Z,8.66
2019-04-29T16:08:51.007Z,8.67
2019-04-29T16:11:37.951Z,8.75
2019-04-29T16:14:10.220Z,8.75
2019-04-29T16:16:39.142Z,8.61
2019-04-29T16:19:10.214Z,8.61
2019-04-29T16:21:39.769Z,8.64
2019-04-29T16:24:25.663Z,8.54
2019-04-29T16:26:40.602Z,8.54
2019-04-29T16:29:15.072Z,8.60
2019-04-29T16:31:42.108Z,8.67
2019-04-29T16:34:10.922Z,8.67
2019-04-29T16:36:43.783Z,8.70
2019-04-29T16:39:12.894Z,8.71
2019-04-29T16:42:10.191Z,8.69
2019-04-29T16:44:39.827Z,8.70
2019-04-29T16:49:41.293Z,8.73
2019-04-29T16:52:10.163Z,8.57
2019-04-29T16:54:39.692Z,8.63
2019-04-29T16:57:08.529Z,8.60
2019-04-29T16:59:37.503Z,8.60
2019-04-29T17:02:19.216Z,8.61
2019-04-29T17:04:43.460Z,8.62
2019-04-29T17:07:16.965Z,8.65
2019-04-29T17:10:06.082Z,8.61
2019-04-29T17:12:48.487Z,8.74
2019-04-29T17:15:24.723Z,8.82
2019-04-29T17:17:48.099Z,8.81
2019-04-29T17:20:17.265Z,8.81
2019-04-29T17:22:48.989Z,8.77
2019-04-29T17:25:18.554Z,8.68
2019-04-29T17:28:03.202Z,8.68
2019-04-29T17:30:50.266Z,8.72
2019-04-29T17:33:28.031Z,8.67
2019-04-29T17:35:19.092Z,8.74
2019-04-29T17:35:55.716Z,8.71
2019-04-29T17:38:24.426Z,8.69
2019-04-29T17:40:53.235Z,8.69
2019-04-29T17:43:43.111Z,8.69
2019-04-29T17:46:39.857Z,8.76
2019-04-29T17:49:29.297Z,8.84
2019-04-29T17:51:59.674Z,8.66
2019-04-29T17:54:29.752Z,8.85
2019-04-29T17:57:25.623Z,8.85
2019-04-29T18:00:00.572Z,8.98
2019-04-29T18:02:52.556Z,8.75
2019-04-29T18:05:53.804Z,8.77
2019-04-29T18:08:15.473Z,8.77
2019-04-29T18:10:48.039Z,8.89
2019-04-29T18:13:23.563Z,8.84
2019-04-29T18:16:00.917Z,8.83
2019-04-29T18:18:26.325Z,8.85
2019-04-29T18:21:29.749Z,8.82
2019-04-29T18:24:37.260Z,8.82
2019-04-29T18:27:09.505Z,8.92
2019-04-29T18:29:41.653Z,8.88
2019-04-29T18:32:08.993Z,8.95
2019-04-29T18:34:39.139Z,8.87
2019-04-29T18:37:07.952Z,8.87
2019-04-29T18:39:45.465Z,8.83
2019-04-29T18:42:15.823Z,8.83
2019-04-29T18:44:54.923Z,8.96
2019-04-29T18:47:35.019Z,8.92
2019-04-29T18:50:05.030Z,8.90
2019-04-29T18:52:37.762Z,8.96
2019-04-29T18:55:07.068Z,8.89
2019-04-29T18:57:35.944Z,8.98
2019-04-29T19:00:11.703Z,8.94
2019-04-29T19:02:45.470Z,8.91
2019-04-29T19:05:35.535Z,8.91
2019-04-29T19:08:12.327Z,8.95
2019-04-29T19:10:37.320Z,8.95
2019-04-29T19:13:12.750Z,8.95
2019-04-29T19:15:39.942Z,8.89
2019-04-29T19:18:08.037Z,8.91
2019-04-29T19:20:38.506Z,8.91
2019-04-29T19:23:10.091Z,8.94
2019-04-29T19:25:41.458Z,8.95
2019-04-29T19:28:14.281Z,9.00
2019-04-29T19:30:40.544Z,8.97
2019-04-29T19:33:17.369Z,9.01
2019-04-29T19:35:46.063Z,8.97
2019-04-29T19:38:25.359Z,9.00
2019-04-29T19:40:55.112Z,9.02
2019-04-29T19:43:25.737Z,9.02
2019-04-29T19:45:55.009Z,8.95
2019-04-29T19:48:26.978Z,9.05
2019-04-29T19:51:14.067Z,8.94
2019-04-29T19:53:26.484Z,8.95
2019-04-29T19:56:02.185Z,8.96
2019-04-29T19:58:29.877Z,8.96
2019-04-29T20:01:10.855Z,8.92
2019-04-29T20:03:37.775Z,8.90
2019-04-29T20:06:09.482Z,8.93
2019-04-29T20:08:53.454Z,9.00
2019-04-29T20:11:14.213Z,8.94
2019-04-29T20:13:40.977Z,8.98
2019-04-29T20:16:40.363Z,8.98
2019-04-29T20:19:22.982Z,8.95
2019-04-29T20:21:52.310Z,8.88
2019-04-29T20:24:26.121Z,8.91
2019-04-29T20:26:54.377Z,8.86
2019-04-29T20:29:27.135Z,8.98
2019-04-29T20:31:56.323Z,8.92
2019-04-29T20:34:26.090Z,8.93
2019-04-29T20:36:55.758Z,8.93
2019-04-29T20:39:26.158Z,8.91
2019-04-29T20:41:55.970Z,8.97
2019-04-29T20:44:25.076Z,8.99
2019-04-29T20:47:15.783Z,8.99
2019-04-29T20:49:26.284Z,8.95
2019-04-29T20:52:01.537Z,8.96
2019-04-29T20:54:31.621Z,9.03
2019-04-29T20:57:04.914Z,9.04
2019-04-29T20:59:31.022Z,9.01
2019-04-29T21:02:12.233Z,8.89
2019-04-29T21:04:39.170Z,8.90
2019-04-29T21:07:03.047Z,8.91
2019-04-29T21:09:31.808Z,8.97
2019-04-29T21:12:20.591Z,8.94
2019-04-29T21:14:52.420Z,9.05
2019-04-29T21:17:31.238Z,8.93
2019-04-29T21:19:51.634Z,8.93
2019-04-29T21:22:23.453Z,8.87
2019-04-29T21:24:53.836Z,8.88
2019-04-29T21:27:22.319Z,8.93
2019-04-29T21:29:54.054Z,8.91
2019-04-29T21:32:23.036Z,8.92
2019-04-29T21:35:10.139Z,8.89
2019-04-29T21:37:48.142Z,8.96
2019-04-29T21:40:26.352Z,8.91
2019-04-29T21:42:58.597Z,8.92
2019-04-29T21:45:27.368Z,8.93
2019-04-29T21:47:56.080Z,8.84
2019-04-29T21:50:29.033Z,8.81
2019-04-29T21:53:01.720Z,8.76
2019-04-29T21:55:29.240Z,8.77
2019-04-29T21:57:58.780Z,8.74
2019-04-29T22:00:26.875Z,8.74
2019-04-29T22:02:55.670Z,8.81
2019-04-29T22:05:25.106Z,8.71
2019-04-29T22:07:54.055Z,8.71
2019-04-29T22:10:25.241Z,8.71
2019-04-29T22:12:58.478Z,8.76
2019-04-29T22:15:32.153Z,8.82
2019-04-29T22:17:58.571Z,8.74
2019-04-29T22:20:25.881Z,8.80
2019-04-29T22:22:55.918Z,8.84
2019-04-29T22:25:25.753Z,8.84
2019-04-29T22:27:55.408Z,8.77
2019-04-29T22:30:26.459Z,8.77
2019-04-29T22:32:58.137Z,8.82
2019-04-29T22:35:27.810Z,8.85
2019-04-29T22:37:56.155Z,8.89
2019-04-29T22:40:25.404Z,8.95
2019-04-29T22:43:14.970Z,8.87
2019-04-29T22:45:43.717Z,8.87
2019-04-29T22:48:18.939Z,8.97
2019-04-29T22:50:45.731Z,8.94
2019-04-29T22:53:14.828Z,8.96
2019-04-29T22:55:45.232Z,9.00
2019-04-29T22:58:15.098Z,8.87
2019-04-29T23:00:44.398Z,8.87
2019-04-29T23:03:13.624Z,8.88
2019-04-29T23:05:42.883Z,8.92
2019-04-29T23:08:12.079Z,8.95
2019-04-29T23:10:41.177Z,8.82
2019-04-29T23:13:09.911Z,8.79
2019-04-29T23:15:38.668Z,8.70
2019-04-29T23:18:07.555Z,8.70
2019-04-29T23:20:51.598Z,8.64
2019-04-29T23:23:28.948Z,8.73
2019-04-29T23:25:59.920Z,8.64
2019-04-29T23:28:28.409Z,8.53
2019-04-29T23:30:57.257Z,8.55
2019-04-29T23:33:26.501Z,8.49
2019-04-29T23:35:56.097Z,8.41
2019-04-29T23:38:25.547Z,8.46
2019-04-29T23:40:56.298Z,8.49
2019-04-29T23:43:28.269Z,8.40
2019-04-29T23:45:56.947Z,8.40
2019-04-29T23:48:38.111Z,8.44
2019-04-29T23:50:58.279Z,8.44
2019-04-29T23:53:27.207Z,8.40
2019-04-29T23:56:00.137Z,8.32
2019-04-29T23:58:46.755Z,8.41
